Time;durP1;ratioP1;P1;durP2;ratioP2;P2;SDS_P1;SDS_P2;PMS_P1;PMS_P2;Temp;Humidity;BMP_temperature;BMP_pressure;BME280_temperature;BME280_humidity;BME280_pressure;Samples;Min_cycle;Max_cycle;Signal;HPM_P1;HPM_P2
2021/10/01 00:01:22;;;;;;;17.42;2.30;;;;;;;;;;5071447;28;20024;-40
2021/10/01 00:03:49;;;;;;;14.27;1.90;;;;;;;;;;5068000;28;20027;-40
2021/10/01 00:06:16;;;;;;;26.02;2.40;;;;;;;;;;5060932;28;20116;-40
2021/10/01 00:08:44;;;;;;;19.58;2.60;;;;;;;;;;5073996;28;20488;-40
2021/10/01 00:11:11;;;;;;;23.17;2.97;;;;;;;;;;5071193;28;20029;-40
2021/10/01 00:13:38;;;;;;;25.63;4.00;;;;;;;;;;5069924;28;20021;-40
2021/10/01 00:16:06;;;;;;;14.68;2.63;;;;;;;;;;5063752;28;20024;-40
2021/10/01 00:18:33;;;;;;;19.95;3.25;;;;;;;;;;5058385;28;20024;-40
2021/10/01 00:21:00;;;;;;;22.60;3.22;;;;;;;;;;5070331;28;20027;-40
2021/10/01 00:23:27;;;;;;;17.50;3.00;;;;;;;;;;5071369;28;20032;-40
2021/10/01 00:25:54;;;;;;;21.35;2.88;;;;;;;;;;5065455;28;20429;-40
2021/10/01 00:28:21;;;;;;;20.08;2.70;;;;;;;;;;5067490;28;20488;-39
2021/10/01 00:30:48;;;;;;;26.17;3.92;;;;;;;;;;5069760;28;20035;-40
2021/10/01 00:33:15;;;;;;;34.15;4.43;;;;;;;;;;5067824;28;20056;-40
2021/10/01 00:35:42;;;;;;;33.47;5.25;;;;;;;;;;5063818;28;20614;-41
2021/10/01 00:38:10;;;;;;;31.25;5.57;;;;;;;;;;5063132;28;20494;-39
2021/10/01 00:40:37;;;;;;;45.92;7.10;;;;;;;;;;5060780;28;20021;-40
2021/10/01 00:43:04;;;;;;;26.88;6.10;;;;;;;;;;5065618;28;20506;-40
2021/10/01 00:45:31;;;;;;;31.90;6.25;;;;;;;;;;5059319;28;20089;-40
2021/10/01 00:47:58;;;;;;;35.45;7.03;;;;;;;;;;5063968;28;20115;-43
2021/10/01 00:50:25;;;;;;;33.20;7.13;;;;;;;;;;5065828;28;20306;-40
2021/10/01 00:52:52;;;;;;;39.38;7.22;;;;;;;;;;5065104;28;20074;-40
2021/10/01 00:55:20;;;;;;;30.92;6.40;;;;;;;;;;5067075;28;20033;-39
2021/10/01 00:57:47;;;;;;;30.67;6.55;;;;;;;;;;5063501;28;20369;-40
2021/10/01 01:00:27;;;;;;;31.77;6.75;;;;;;;;;;5062563;28;20381;-41
2021/10/01 01:03:02;;;;;;;36.05;7.30;;;;;;;;;;5064566;28;20032;-40
2021/10/01 01:05:49;;;;;;;32.13;6.97;;;;;;;;;;5059617;28;20440;-41
2021/10/01 01:08:21;;;;;;;30.45;6.93;;;;;;;;;;5061699;28;20506;-40
2021/10/01 01:10:56;;;;;;;45.20;8.38;;;;;;;;;;5069441;28;20020;-39
2021/10/01 01:13:29;;;;;;;37.40;8.68;;;;;;;;;;5053105;28;20089;-39
2021/10/01 01:15:58;;;;;;;50.38;8.85;;;;;;;;;;5065708;28;20032;-41
2021/10/01 01:18:33;;;;;;;44.33;8.93;;;;;;;;;;5047098;28;20097;-41
2021/10/01 01:21:01;;;;;;;41.40;8.73;;;;;;;;;;5062034;28;20025;-40
2021/10/01 01:23:37;;;;;;;39.58;8.82;;;;;;;;;;5052385;28;20032;-41
2021/10/01 01:26:20;;;;;;;36.13;7.88;;;;;;;;;;5061356;28;20357;-42
2021/10/01 01:29:02;;;;;;;37.45;8.45;;;;;;;;;;5071370;28;20465;-41
2021/10/01 01:31:29;;;;;;;;;;;;;;;;;;5086948;28;20024;-41
2021/10/01 01:33:57;;;;;;;42.97;7.10;;;;;;;;;;5089991;28;20041;-41
2021/10/01 01:36:24;;;;;;;43.22;7.20;;;;;;;;;;5090893;28;20030;-41
2021/10/01 01:38:52;;;;;;;31.65;7.18;;;;;;;;;;5091496;28;20396;-41
2021/10/01 01:41:20;;;;;;;30.02;7.38;;;;;;;;;;5091534;28;20028;-42
2021/10/01 01:43:51;;;;;;;31.15;7.05;;;;;;;;;;5090629;28;20028;-41
2021/10/01 01:46:19;;;;;;;39.10;7.22;;;;;;;;;;5091886;28;20086;-41
2021/10/01 01:48:47;;;;;;;34.30;6.97;;;;;;;;;;5090883;28;20032;-42
2021/10/01 01:51:14;;;;;;;31.60;5.80;;;;;;;;;;5092298;28;20040;-41
2021/10/01 01:53:42;;;;;;;31.10;6.38;;;;;;;;;;5090394;28;20058;-41
2021/10/01 01:56:10;;;;;;;29.05;6.07;;;;;;;;;;5089910;28;20024;-40
2021/10/01 01:58:37;;;;;;;23.45;6.20;;;;;;;;;;5090865;28;20103;-40
2021/10/01 02:01:06;;;;;;;33.35;7.57;;;;;;;;;;5085754;28;20035;-41
2021/10/01 02:03:34;;;;;;;25.77;6.65;;;;;;;;;;5091504;28;20027;-40
2021/10/01 02:06:02;;;;;;;29.00;5.88;;;;;;;;;;5090890;28;20030;-41
2021/10/01 02:08:29;;;;;;;23.48;5.55;;;;;;;;;;5092097;28;20043;-41
2021/10/01 02:10:57;;;;;;;37.33;6.65;;;;;;;;;;5091540;28;20080;-42
2021/10/01 02:13:25;;;;;;;33.90;6.40;;;;;;;;;;5090323;28;20360;-40
2021/10/01 02:15:54;;;;;;;29.92;6.13;;;;;;;;;;5070288;28;20451;-40
2021/10/01 02:18:27;;;;;;;25.13;5.78;;;;;;;;;;5089605;28;20475;-40
2021/10/01 02:20:56;;;;;;;27.65;6.18;;;;;;;;;;5090963;28;20016;-42
2021/10/01 02:23:24;;;;;;;20.80;5.72;;;;;;;;;;5077077;28;20500;-40
2021/10/01 02:28:48;;;;;;;26.02;5.75;;;;;;;;;;5050815;28;20079;-41
2021/10/01 02:31:22;;;;;;;29.23;5.85;;;;;;;;;;5052118;28;20029;-41
2021/10/01 02:33:51;;;;;;;27.75;6.45;;;;;;;;;;5051426;28;20021;-41
2021/10/01 02:36:18;;;;;;;22.95;5.75;;;;;;;;;;5049811;28;20029;-41
2021/10/01 02:38:45;;;;;;;25.30;5.63;;;;;;;;;;5050194;28;20472;-40
2021/10/01 02:41:12;;;;;;;28.15;5.93;;;;;;;;;;5051648;28;20112;-41
2021/10/01 02:43:42;;;;;;;27.15;5.70;;;;;;;;;;5051016;28;20465;-40
2021/10/01 02:46:09;;;;;;;25.45;5.63;;;;;;;;;;5050922;28;20500;-40
2021/10/01 02:48:36;;;;;;;20.02;5.10;;;;;;;;;;5061533;28;20036;-40
2021/10/01 02:51:07;;;;;;;24.58;5.70;;;;;;;;;;5071004;28;20500;-42
2021/10/01 02:53:39;;;;;;;27.67;5.90;;;;;;;;;;5070675;28;20028;-40
2021/10/01 02:56:16;;;;;;;26.60;6.43;;;;;;;;;;5070230;28;20020;-40
2021/10/01 02:58:47;;;;;;;20.98;5.57;;;;;;;;;;5052686;28;20086;-41
2021/10/01 03:01:15;;;;;;;26.10;6.07;;;;;;;;;;5054081;28;20495;-41
2021/10/01 03:03:44;;;;;;;22.40;5.55;;;;;;;;;;5055475;28;20029;-40
2021/10/01 03:06:12;;;;;;;19.45;5.43;;;;;;;;;;5053956;28;20377;-41
2021/10/01 03:08:40;;;;;;;20.63;5.15;;;;;;;;;;5048827;28;20129;-40
2021/10/01 03:11:10;;;;;;;20.00;5.70;;;;;;;;;;5054667;28;20040;-40
2021/10/01 03:13:40;;;;;;;21.38;5.20;;;;;;;;;;5055583;28;20037;-40
2021/10/01 03:16:07;;;;;;;18.20;5.72;;;;;;;;;;5053872;28;20028;-40
2021/10/01 03:18:36;;;;;;;18.77;5.50;;;;;;;;;;5057233;28;20028;-41
2021/10/01 03:21:04;;;;;;;21.92;6.07;;;;;;;;;;5074660;28;20067;-41
2021/10/01 03:23:32;;;;;;;21.70;5.50;;;;;;;;;;5074262;28;20029;-41
2021/10/01 03:25:59;;;;;;;27.30;5.97;;;;;;;;;;5070067;28;20094;-41
2021/10/01 03:28:26;;;;;;;20.92;5.50;;;;;;;;;;5067848;28;20512;-40
2021/10/01 03:30:53;;;;;;;17.75;5.07;;;;;;;;;;5074515;28;20145;-40
2021/10/01 03:33:27;;;;;;;22.38;5.63;;;;;;;;;;5075093;28;20028;-40
2021/10/01 03:35:55;;;;;;;18.75;5.10;;;;;;;;;;5073980;28;20032;-41
2021/10/01 03:38:23;;;;;;;21.27;5.25;;;;;;;;;;5067194;28;20115;-40
2021/10/01 03:40:51;;;;;;;15.65;4.57;;;;;;;;;;5054387;28;20029;-40
2021/10/01 03:43:24;;;;;;;17.42;4.82;;;;;;;;;;5053827;28;20017;-40
2021/10/01 03:45:51;;;;;;;21.48;5.30;;;;;;;;;;5054070;28;20535;-41
2021/10/01 03:48:18;;;;;;;16.85;4.93;;;;;;;;;;5052904;28;20913;-40
2021/10/01 03:50:45;;;;;;;15.82;5.40;;;;;;;;;;5071420;28;20048;-41
2021/10/01 03:53:12;;;;;;;15.77;4.80;;;;;;;;;;5074694;28;20035;-41
2021/10/01 03:55:39;;;;;;;17.02;5.00;;;;;;;;;;5073639;28;20031;-40
2021/10/01 03:58:07;;;;;;;13.82;4.88;;;;;;;;;;5074526;28;20025;-41
2021/10/01 04:00:34;;;;;;;16.65;5.00;;;;;;;;;;5068994;28;20107;-41
2021/10/01 04:03:01;;;;;;;14.35;4.82;;;;;;;;;;5074456;28;20029;-41
2021/10/01 04:05:28;;;;;;;15.38;4.25;;;;;;;;;;5073859;28;20025;-41
2021/10/01 04:07:55;;;;;;;15.95;4.82;;;;;;;;;;5073710;28;20059;-40
2021/10/01 04:10:22;;;;;;;16.30;5.35;;;;;;;;;;5067276;28;20028;-41
2021/10/01 04:12:49;;;;;;;14.52;4.53;;;;;;;;;;5073513;28;20029;-41
2021/10/01 04:15:16;;;;;;;14.07;4.60;;;;;;;;;;5055817;28;20185;-41
2021/10/01 04:17:43;;;;;;;15.38;4.57;;;;;;;;;;5074049;28;20384;-40
2021/10/01 04:20:11;;;;;;;15.57;4.85;;;;;;;;;;5066505;28;20434;-41
2021/10/01 04:22:38;;;;;;;13.32;3.65;;;;;;;;;;5073834;28;20816;-41
2021/10/01 04:25:05;;;;;;;15.40;4.55;;;;;;;;;;5074131;28;20032;-41
2021/10/01 04:27:33;;;;;;;14.90;4.55;;;;;;;;;;5072893;28;20064;-41
2021/10/01 04:30:00;;;;;;;9.80;3.60;;;;;;;;;;5067164;28;20025;-40
2021/10/01 04:32:28;;;;;;;15.98;4.63;;;;;;;;;;5073177;28;20025;-40
2021/10/01 04:35:00;;;;;;;12.82;4.32;;;;;;;;;;5073202;28;20027;-41
2021/10/01 04:37:28;;;;;;;9.48;4.03;;;;;;;;;;5072628;28;20119;-40
2021/10/01 04:39:55;;;;;;;14.45;4.50;;;;;;;;;;5066436;28;20036;-40
2021/10/01 04:42:23;;;;;;;12.77;4.18;;;;;;;;;;5073669;28;20487;-40
2021/10/01 04:44:50;;;;;;;14.30;4.15;;;;;;;;;;5073652;28;20122;-40
2021/10/01 04:47:17;;;;;;;9.65;3.78;;;;;;;;;;5072948;28;20052;-40
2021/10/01 04:49:44;;;;;;;16.05;4.70;;;;;;;;;;5069230;28;20032;-40
2021/10/01 04:52:11;;;;;;;14.40;4.35;;;;;;;;;;5084052;28;20046;-41
2021/10/01 04:54:38;;;;;;;11.90;3.85;;;;;;;;;;5092919;28;20023;-41
2021/10/01 04:57:07;;;;;;;9.90;4.25;;;;;;;;;;5092178;28;20043;-41
2021/10/01 04:59:34;;;;;;;10.32;4.22;;;;;;;;;;5092920;28;20043;-40
2021/10/01 05:02:02;;;;;;;13.55;4.40;;;;;;;;;;5067862;28;20032;-40
2021/10/01 05:04:29;;;;;;;12.73;4.25;;;;;;;;;;5073253;28;20086;-40
2021/10/01 05:06:56;;;;;;;13.00;4.25;;;;;;;;;;5071811;28;20063;-40
2021/10/01 05:09:23;;;;;;;15.20;4.68;;;;;;;;;;5072791;28;20486;-40
2021/10/01 05:11:50;;;;;;;12.50;4.70;;;;;;;;;;5068980;28;20458;-41
2021/10/01 05:14:17;;;;;;;13.90;4.45;;;;;;;;;;5073199;28;20469;-40
2021/10/01 05:16:45;;;;;;;12.27;4.50;;;;;;;;;;5073642;28;20460;-42
2021/10/01 05:19:12;;;;;;;17.77;4.47;;;;;;;;;;5072794;28;20033;-41
2021/10/01 05:21:39;;;;;;;14.05;4.10;;;;;;;;;;5065263;28;20431;-41
2021/10/01 05:24:06;;;;;;;10.90;4.68;;;;;;;;;;5060243;28;20025;-40
2021/10/01 05:26:33;;;;;;;9.32;4.35;;;;;;;;;;5052195;28;20434;-40
2021/10/01 05:29:00;;;;;;;10.73;4.40;;;;;;;;;;5052300;28;20393;-40
2021/10/01 05:31:29;;;;;;;17.20;5.15;;;;;;;;;;5056956;28;20514;-41
2021/10/01 05:33:56;;;;;;;15.68;5.25;;;;;;;;;;5072890;28;20423;-40
2021/10/01 05:36:24;;;;;;;9.38;4.35;;;;;;;;;;5072466;28;20376;-41
2021/10/01 05:38:51;;;;;;;13.02;4.40;;;;;;;;;;5071837;28;20107;-41
2021/10/01 05:41:19;;;;;;;15.25;4.75;;;;;;;;;;5068770;28;21306;-40
2021/10/01 05:43:46;;;;;;;10.98;4.43;;;;;;;;;;5073193;28;20021;-41
2021/10/01 05:46:14;;;;;;;11.50;4.65;;;;;;;;;;5071899;28;20028;-40
2021/10/01 05:48:44;;;;;;;8.82;3.90;;;;;;;;;;5071787;28;20391;-40
2021/10/01 05:51:13;;;;;;;14.70;4.43;;;;;;;;;;5070040;28;20041;-40
2021/10/01 05:56:11;;;;;;;9.25;3.92;;;;;;;;;;5072091;28;20039;-40
2021/10/01 05:58:39;;;;;;;7.43;3.58;;;;;;;;;;5071507;28;20380;-41
2021/10/01 06:01:07;;;;;;;12.82;4.47;;;;;;;;;;5071970;28;20494;-40
2021/10/01 06:03:34;;;;;;;11.98;4.07;;;;;;;;;;5053749;28;20017;-40
2021/10/01 06:06:01;;;;;;;8.95;4.05;;;;;;;;;;5052445;28;20090;-43
2021/10/01 06:08:28;;;;;;;10.68;4.05;;;;;;;;;;5051762;28;20037;-41
2021/10/01 06:10:55;;;;;;;8.43;3.80;;;;;;;;;;5052448;28;20025;-40
2021/10/01 06:13:22;;;;;;;10.70;3.92;;;;;;;;;;5065162;28;20040;-41
2021/10/01 06:15:49;;;;;;;10.00;3.80;;;;;;;;;;5072136;28;20430;-41
2021/10/01 06:18:16;;;;;;;10.95;3.42;;;;;;;;;;5071343;28;20384;-40
2021/10/01 06:20:43;;;;;;;11.85;3.45;;;;;;;;;;5072230;28;20029;-40
2021/10/01 06:23:10;;;;;;;10.27;3.90;;;;;;;;;;5066908;28;20494;-41
2021/10/01 06:25:38;;;;;;;8.90;3.63;;;;;;;;;;5072192;28;20388;-40
2021/10/01 06:28:07;;;;;;;10.00;3.42;;;;;;;;;;5070835;28;20391;-41
2021/10/01 06:30:34;;;;;;;17.08;4.25;;;;;;;;;;5071907;28;20025;-43
2021/10/01 06:33:02;;;;;;;10.57;3.33;;;;;;;;;;5067335;28;20101;-41
2021/10/01 06:35:29;;;;;;;7.03;2.95;;;;;;;;;;5072052;28;20025;-40
2021/10/01 06:37:56;;;;;;;6.47;2.95;;;;;;;;;;5069987;28;20431;-40
2021/10/01 06:40:23;;;;;;;11.10;3.92;;;;;;;;;;5070287;28;20055;-41
2021/10/01 06:42:52;;;;;;;10.98;3.10;;;;;;;;;;5066411;28;20562;-41
2021/10/01 06:45:27;;;;;;;9.35;3.80;;;;;;;;;;5070733;28;20469;-41
2021/10/01 07:45:07;;;;;;;4.82;2.40;;;;;;;;;;5070743;28;20048;-41
2021/10/01 08:18:24;;;;;;;7.05;2.85;;;;;;;;;;5074419;28;20043;-41
2021/10/01 08:20:46;;;;;;;5.53;2.20;;;;;;;;;;5054452;28;20067;-40
2021/10/01 08:23:13;;;;;;;4.38;2.30;;;;;;;;;;5053618;28;20180;-40
2021/10/01 08:25:40;;;;;;;8.65;2.38;;;;;;;;;;5051172;28;20025;-40
2021/10/01 08:28:08;;;;;;;5.85;2.05;;;;;;;;;;5053956;28;20117;-40
2021/10/01 08:30:35;;;;;;;5.07;1.98;;;;;;;;;;5052968;28;20021;-41
2021/10/01 08:33:02;;;;;;;6.72;2.20;;;;;;;;;;5054003;28;20025;-41
2021/10/01 08:35:29;;;;;;;6.80;2.08;;;;;;;;;;5051896;28;20029;-41
2021/10/01 08:37:58;;;;;;;5.15;1.80;;;;;;;;;;5065866;28;20028;-40
2021/10/01 08:40:25;;;;;;;6.63;2.10;;;;;;;;;;5057798;28;20044;-41
2021/10/01 08:42:54;;;;;;;6.88;2.25;;;;;;;;;;5072958;28;20039;-40
2021/10/01 08:45:22;;;;;;;5.22;2.35;;;;;;;;;;5071172;28;20024;-40
2021/10/01 08:47:49;;;;;;;8.15;2.13;;;;;;;;;;5051574;28;20492;-40
2021/10/01 08:50:19;;;;;;;6.53;2.10;;;;;;;;;;5052333;28;20052;-40
2021/10/01 08:52:46;;;;;;;7.57;2.03;;;;;;;;;;5071494;28;20051;-40
2021/10/01 08:55:14;;;;;;;3.58;1.70;;;;;;;;;;5072716;28;20074;-40
2021/10/01 08:57:43;;;;;;;4.35;1.67;;;;;;;;;;5068602;28;20035;-41
2021/10/01 09:00:14;;;;;;;5.10;2.03;;;;;;;;;;5073467;28;20095;-41
2021/10/01 09:02:41;;;;;;;4.10;1.85;;;;;;;;;;5070881;28;20035;-40
2021/10/01 09:05:09;;;;;;;3.55;1.85;;;;;;;;;;5072152;28;20120;-41
2021/10/01 09:07:36;;;;;;;4.90;1.70;;;;;;;;;;5066608;28;20070;-40
2021/10/01 09:10:09;;;;;;;7.18;1.77;;;;;;;;;;5073978;28;20475;-40
2021/10/01 09:12:36;;;;;;;6.38;1.90;;;;;;;;;;5052319;28;20115;-40
2021/10/01 09:15:04;;;;;;;4.18;1.65;;;;;;;;;;5053256;28;20025;-41
2021/10/01 09:17:33;;;;;;;6.88;2.38;;;;;;;;;;5062139;28;20085;-41
2021/10/01 09:20:00;;;;;;;6.07;2.08;;;;;;;;;;5072707;28;20385;-41
2021/10/01 09:22:29;;;;;;;4.32;1.80;;;;;;;;;;5072230;28;20029;-41
2021/10/01 09:25:16;;;;;;;4.15;2.00;;;;;;;;;;5072717;28;20150;-40
2021/10/01 09:27:44;;;;;;;5.13;1.95;;;;;;;;;;5068362;28;20036;-41
2021/10/01 09:30:11;;;;;;;4.68;1.80;;;;;;;;;;5073457;28;20020;-41
2021/10/01 09:32:39;;;;;;;3.42;1.60;;;;;;;;;;5072561;28;20025;-41
2021/10/01 09:35:12;;;;;;;4.50;1.67;;;;;;;;;;5073066;28;20070;-40
2021/10/01 09:37:38;;;;;;;;;;;;;;;;;;5068455;28;20403;-40
2021/10/01 09:40:06;;;;;;;6.13;1.80;;;;;;;;;;5073550;28;19995;-40
2021/10/01 09:42:39;;;;;;;4.93;1.90;;;;;;;;;;5072018;28;20035;-40
2021/10/01 09:45:08;;;;;;;5.85;1.90;;;;;;;;;;5072025;28;20151;-41
2021/10/01 09:47:39;;;;;;;5.95;1.83;;;;;;;;;;5072232;28;20486;-41
2021/10/01 09:50:11;;;;;;;6.97;1.98;;;;;;;;;;5084413;28;20368;-41
2021/10/01 09:52:41;;;;;;;3.40;1.65;;;;;;;;;;5090976;28;20048;-41
2021/10/01 09:55:09;;;;;;;9.52;1.85;;;;;;;;;;5090868;28;20418;-40
2021/10/01 09:57:39;;;;;;;13.13;1.90;;;;;;;;;;5073394;28;20111;-43
2021/10/01 10:00:07;;;;;;;6.50;2.53;;;;;;;;;;5091254;28;20568;-40
2021/10/01 10:02:38;;;;;;;7.30;1.60;;;;;;;;;;5091723;28;20349;-39
2021/10/01 10:05:05;;;;;;;9.63;2.08;;;;;;;;;;5080546;28;20407;-44
2021/10/01 10:07:39;;;;;;;8.25;2.85;;;;;;;;;;5077921;28;20361;-39
2021/10/01 10:10:08;;;;;;;7.55;2.03;;;;;;;;;;5073788;28;20024;-42
2021/10/01 10:12:36;;;;;;;8.75;2.35;;;;;;;;;;5090315;28;20382;-46
2021/10/01 10:15:04;;;;;;;3.38;2.08;;;;;;;;;;5091342;28;20078;-45
2021/10/01 10:17:32;;;;;;;5.13;2.25;;;;;;;;;;5085516;28;20410;-47
2021/10/01 10:20:01;;;;;;;8.05;2.20;;;;;;;;;;5092366;28;20039;-42
2021/10/01 10:22:29;;;;;;;5.75;1.85;;;;;;;;;;5091115;28;20020;-41
2021/10/01 10:24:56;;;;;;;6.80;2.25;;;;;;;;;;5092003;28;20443;-45
2021/10/01 10:27:24;;;;;;;3.60;1.95;;;;;;;;;;5091920;28;20391;-44
2021/10/01 10:29:55;;;;;;;5.07;1.70;;;;;;;;;;5084764;28;20045;-44
2021/10/01 10:32:28;;;;;;;10.25;2.20;;;;;;;;;;5079619;28;20454;-47
2021/10/01 10:34:55;;;;;;;4.47;1.98;;;;;;;;;;5087365;28;20032;-50
2021/10/01 10:37:35;;;;;;;5.82;2.20;;;;;;;;;;5091633;28;20414;-52
2021/10/01 10:40:10;;;;;;;11.10;1.88;;;;;;;;;;5091624;28;20028;-47
2021/10/01 10:42:57;;;;;;;5.95;2.03;;;;;;;;;;5091109;28;20047;-48
2021/10/01 10:45:25;;;;;;;8.85;1.77;;;;;;;;;;5092140;28;20426;-47
2021/10/01 10:47:53;;;;;;;6.00;1.65;;;;;;;;;;5092453;28;20028;-50
2021/10/01 10:53:11;;;;;;;5.38;1.90;;;;;;;;;;5090709;28;20047;-48
2021/10/01 10:55:50;;;;;;;6.97;1.92;;;;;;;;;;5092340;28;20365;-49
2021/10/01 10:58:26;;;;;;;6.78;1.92;;;;;;;;;;5092038;28;20400;-50
2021/10/01 11:01:00;;;;;;;4.65;1.70;;;;;;;;;;5091714;28;20529;-47
2021/10/01 11:03:28;;;;;;;4.78;2.03;;;;;;;;;;5091045;28;20025;-40
2021/10/01 11:06:12;;;;;;;6.72;1.80;;;;;;;;;;5074241;28;20406;-49
2021/10/01 11:08:41;;;;;;;4.45;1.60;;;;;;;;;;5090210;28;20047;-50
2021/10/01 11:11:27;;;;;;;18.42;2.00;;;;;;;;;;5091442;28;20518;-57
2021/10/01 11:14:14;;;;;;;16.98;1.60;;;;;;;;;;5068905;28;20496;-43
2021/10/01 11:16:53;;;;;;;20.95;2.45;;;;;;;;;;5049665;28;20477;-45
2021/10/01 11:19:49;;;;;;;30.20;3.22;;;;;;;;;;5067722;28;20061;-44
2021/10/01 11:22:42;;;;;;;6.75;1.58;;;;;;;;;;5069589;28;20068;-44
2021/10/01 11:25:16;;;;;;;7.95;1.88;;;;;;;;;;5094350;28;20019;-45
2021/10/01 11:27:49;;;;;;;14.32;1.90;;;;;;;;;;5093731;28;20115;-45
2021/10/01 11:30:17;;;;;;;8.98;1.92;;;;;;;;;;5093969;28;20506;-49
2021/10/01 11:32:44;;;;;;;10.05;1.63;;;;;;;;;;5081317;28;20021;-37
2021/10/01 11:35:11;;;;;;;13.38;2.50;;;;;;;;;;5056264;28;20126;-42
2021/10/01 11:37:39;;;;;;;17.50;2.30;;;;;;;;;;5074029;28;20111;-43
2021/10/01 11:40:11;;;;;;;59.08;4.70;;;;;;;;;;5073226;28;20024;-46
2021/10/01 11:42:39;;;;;;;144.77;9.77;;;;;;;;;;5073796;28;20031;-48
2021/10/01 11:45:25;;;;;;;129.15;12.85;;;;;;;;;;5074375;28;20255;-48
2021/10/01 11:48:18;;;;;;;89.30;8.88;;;;;;;;;;5074465;28;20064;-46
2021/10/01 11:50:45;;;;;;;44.85;3.67;;;;;;;;;;5063158;28;20384;-50
2021/10/01 11:53:18;;;;;;;29.83;4.00;;;;;;;;;;5072513;28;20033;-48
2021/10/01 11:55:55;;;;;;;51.03;5.68;;;;;;;;;;5071056;28;20017;-48
2021/10/01 11:58:23;;;;;;;37.10;4.28;;;;;;;;;;5072573;28;20372;-54
2021/10/01 12:00:51;;;;;;;33.88;5.40;;;;;;;;;;5060641;28;20032;-48
2021/10/01 12:03:18;;;;;;;34.05;3.65;;;;;;;;;;5065392;28;20138;-47
2021/10/01 12:05:50;;;;;;;25.23;3.60;;;;;;;;;;5071775;28;20031;-44
2021/10/01 12:08:23;;;;;;;28.33;3.25;;;;;;;;;;5072608;28;20110;-43
2021/10/01 12:10:52;;;;;;;19.38;2.78;;;;;;;;;;5072746;28;20401;-41
2021/10/01 12:13:22;;;;;;;18.92;2.35;;;;;;;;;;5065763;28;20043;-43
2021/10/01 12:16:01;;;;;;;22.00;2.75;;;;;;;;;;5061649;28;20441;-40
2021/10/01 12:18:37;;;;;;;20.20;2.60;;;;;;;;;;5073256;28;20078;-39
2021/10/01 12:21:06;;;;;;;12.48;2.00;;;;;;;;;;5050370;28;20542;-43
2021/10/01 12:23:40;;;;;;;15.98;2.10;;;;;;;;;;5067277;28;20043;-40
2021/10/01 12:26:19;;;;;;;12.82;2.03;;;;;;;;;;5070336;28;20570;-42
2021/10/01 12:29:05;;;;;;;13.23;1.75;;;;;;;;;;5068847;28;20033;-45
2021/10/01 12:31:43;;;;;;;16.98;2.40;;;;;;;;;;5073174;28;20369;-38
2021/10/01 12:34:14;;;;;;;8.48;1.45;;;;;;;;;;5064109;28;20028;-43
2021/10/01 12:36:42;;;;;;;8.27;1.23;;;;;;;;;;5073011;28;20025;-44
2021/10/01 12:39:10;;;;;;;10.52;1.20;;;;;;;;;;5072010;28;20029;-42
2021/10/01 12:41:37;;;;;;;12.05;1.40;;;;;;;;;;5072875;28;20056;-45
2021/10/01 12:44:05;;;;;;;8.00;1.33;;;;;;;;;;5059700;28;20044;-39
2021/10/01 12:46:34;;;;;;;9.65;1.50;;;;;;;;;;5058784;28;20035;-42
2021/10/01 12:49:13;;;;;;;8.73;1.45;;;;;;;;;;5076303;28;20078;-48
2021/10/01 12:51:41;;;;;;;14.55;1.30;;;;;;;;;;5062500;28;20044;-48
2021/10/01 12:54:28;;;;;;;12.85;1.35;;;;;;;;;;5052799;28;20066;-45
2021/10/01 12:57:10;;;;;;;10.82;1.70;;;;;;;;;;5060779;28;20032;-42
2021/10/01 12:59:45;;;;;;;16.73;1.60;;;;;;;;;;5063706;28;20119;-43
2021/10/01 13:02:19;;;;;;;11.80;1.33;;;;;;;;;;5062220;28;20036;-46
2021/10/01 13:04:52;;;;;;;11.20;1.75;;;;;;;;;;5059340;28;20043;-44
2021/10/01 13:07:26;;;;;;;10.85;1.30;;;;;;;;;;5068125;28;20032;-45
2021/10/01 13:09:53;;;;;;;12.90;1.02;;;;;;;;;;5070561;28;20037;-47
2021/10/01 13:12:31;;;;;;;12.23;1.42;;;;;;;;;;5067754;28;20020;-40
2021/10/01 13:15:11;;;;;;;15.75;1.10;;;;;;;;;;5061772;28;20041;-47
2021/10/01 13:17:39;;;;;;;21.52;1.23;;;;;;;;;;5042748;28;20035;-47
2021/10/01 13:20:07;;;;;;;18.83;1.33;;;;;;;;;;5054300;28;20041;-49
2021/10/01 13:22:56;;;;;;;10.98;1.02;;;;;;;;;;5046731;28;20075;-57
2021/10/01 13:25:24;;;;;;;10.73;0.93;;;;;;;;;;5066334;28;20029;-44
2021/10/01 13:27:56;;;;;;;13.60;1.10;;;;;;;;;;5052347;28;20115;-43
2021/10/01 13:30:23;;;;;;;7.90;1.00;;;;;;;;;;5072299;28;20025;-42
2021/10/01 13:32:50;;;;;;;10.65;0.70;;;;;;;;;;5070703;28;20103;-44
2021/10/01 13:35:18;;;;;;;8.52;0.73;;;;;;;;;;5072066;28;20377;-45
2021/10/01 13:37:46;;;;;;;8.75;0.70;;;;;;;;;;5071835;28;20451;-41
2021/10/01 13:40:13;;;;;;;10.35;1.15;;;;;;;;;;5070968;28;20488;-44
2021/10/01 13:42:41;;;;;;;19.52;0.85;;;;;;;;;;5071074;28;20039;-48
2021/10/01 13:45:09;;;;;;;32.20;2.90;;;;;;;;;;5071294;28;20020;-48
2021/10/01 13:47:36;;;;;;;32.33;2.40;;;;;;;;;;5071265;28;20032;-48
2021/10/01 13:50:04;;;;;;;26.00;2.00;;;;;;;;;;5072480;28;20383;-54
2021/10/01 13:52:31;;;;;;;22.50;1.38;;;;;;;;;;5072305;28;20446;-44
2021/10/01 13:54:58;;;;;;;43.78;2.85;;;;;;;;;;5069864;28;20399;-43
2021/10/01 13:57:28;;;;;;;31.25;1.98;;;;;;;;;;5069613;28;20051;-43
2021/10/01 13:59:55;;;;;;;14.13;1.52;;;;;;;;;;5070417;28;20017;-39
2021/10/01 14:02:22;;;;;;;22.02;1.30;;;;;;;;;;5070939;28;20512;-43
2021/10/01 14:04:50;;;;;;;16.90;1.58;;;;;;;;;;5070428;28;20419;-43
2021/10/01 14:07:17;;;;;;;15.07;1.65;;;;;;;;;;5070355;28;20028;-45
2021/10/01 14:09:44;;;;;;;28.40;1.95;;;;;;;;;;5068963;28;20090;-42
2021/10/01 14:12:13;;;;;;;21.23;1.33;;;;;;;;;;5071240;28;20024;-42
2021/10/01 14:14:40;;;;;;;19.40;1.27;;;;;;;;;;5071325;28;20020;-50
2021/10/01 14:17:07;;;;;;;14.25;1.30;;;;;;;;;;5071287;28;20388;-45
2021/10/01 14:19:34;;;;;;;10.88;1.00;;;;;;;;;;5054385;28;20430;-45
2021/10/01 14:22:01;;;;;;;14.13;1.25;;;;;;;;;;5071388;28;20012;-44
2021/10/01 14:24:28;;;;;;;16.67;1.40;;;;;;;;;;5071494;28;20437;-46
2021/10/01 14:26:55;;;;;;;17.83;1.95;;;;;;;;;;5070173;28;20111;-46
2021/10/01 14:29:22;;;;;;;21.58;1.67;;;;;;;;;;5069416;28;20257;-44
2021/10/01 14:31:49;;;;;;;10.00;1.90;;;;;;;;;;5069798;28;20024;-43
2021/10/01 14:34:17;;;;;;;8.85;1.20;;;;;;;;;;5069671;28;20020;-44
2021/10/01 14:36:44;;;;;;;11.85;1.83;;;;;;;;;;5070209;28;20024;-46
2021/10/01 14:39:11;;;;;;;15.75;1.67;;;;;;;;;;5067181;28;20025;-45
2021/10/01 14:41:38;;;;;;;8.77;1.08;;;;;;;;;;5069221;28;20415;-47
2021/10/01 14:44:05;;;;;;;8.85;1.10;;;;;;;;;;5071169;28;20025;-51
2021/10/01 14:46:32;;;;;;;11.80;0.70;;;;;;;;;;5069368;28;20078;-46
2021/10/01 14:48:59;;;;;;;10.48;0.88;;;;;;;;;;5069991;28;20719;-42
2021/10/01 14:51:27;;;;;;;15.25;1.30;;;;;;;;;;5069475;28;20032;-45
2021/10/01 14:53:54;;;;;;;17.40;1.88;;;;;;;;;;5068006;28;20024;-42
2021/10/01 14:56:21;;;;;;;11.38;1.65;;;;;;;;;;5070473;28;20048;-43
2021/10/01 14:58:48;;;;;;;18.88;1.48;;;;;;;;;;5072928;28;20377;-42
2021/10/01 15:01:15;;;;;;;13.50;1.30;;;;;;;;;;5074595;28;20077;-47
2021/10/01 15:03:43;;;;;;;17.88;1.33;;;;;;;;;;5055495;28;20029;-43
2021/10/01 15:06:10;;;;;;;10.63;1.65;;;;;;;;;;5081469;28;20031;-42
2021/10/01 15:08:37;;;;;;;16.83;1.50;;;;;;;;;;5083457;28;20028;-39
2021/10/01 15:11:04;;;;;;;17.55;2.28;;;;;;;;;;5084909;28;20538;-41
2021/10/01 15:13:31;;;;;;;22.80;2.97;;;;;;;;;;5078365;28;20094;-43
2021/10/01 15:15:58;;;;;;;24.52;3.10;;;;;;;;;;5071866;28;20044;-45
2021/10/01 15:18:25;;;;;;;30.75;3.47;;;;;;;;;;5080932;28;20016;-40
2021/10/01 15:20:52;;;;;;;27.63;4.10;;;;;;;;;;5073179;28;20024;-41
2021/10/01 15:23:19;;;;;;;28.10;4.45;;;;;;;;;;5073719;28;20040;-40
2021/10/01 15:25:47;;;;;;;21.05;4.28;;;;;;;;;;5072476;28;20060;-47
2021/10/01 15:28:14;;;;;;;28.67;5.43;;;;;;;;;;5071869;28;20036;-45
2021/10/01 15:30:42;;;;;;;25.10;4.80;;;;;;;;;;5072429;28;20023;-43
2021/10/01 15:33:09;;;;;;;33.72;4.90;;;;;;;;;;5073612;28;20032;-50
2021/10/01 15:35:36;;;;;;;27.10;4.90;;;;;;;;;;5071809;28;20633;-47
2021/10/01 15:38:04;;;;;;;25.88;4.95;;;;;;;;;;5072197;28;20085;-46
2021/10/01 15:40:32;;;;;;;39.50;5.88;;;;;;;;;;5072201;28;20107;-47
2021/10/01 15:43:00;;;;;;;27.98;5.07;;;;;;;;;;5071780;28;20037;-43
2021/10/01 15:45:29;;;;;;;32.47;4.80;;;;;;;;;;5071587;28;20024;-40
2021/10/01 15:47:56;;;;;;;24.58;5.40;;;;;;;;;;5071396;28;20032;-45
2021/10/01 15:50:23;;;;;;;30.25;4.93;;;;;;;;;;5072899;28;20024;-43
2021/10/01 15:52:52;;;;;;;29.33;5.43;;;;;;;;;;5066308;28;20033;-42
2021/10/01 15:55:20;;;;;;;21.70;4.05;;;;;;;;;;5069591;28;20085;-36
2021/10/01 15:57:47;;;;;;;24.02;5.05;;;;;;;;;;5069821;28;20108;-41
2021/10/01 16:00:15;;;;;;;27.45;4.63;;;;;;;;;;5062529;28;20025;-43
2021/10/01 16:02:43;;;;;;;25.30;4.55;;;;;;;;;;5067500;28;20020;-49
2021/10/01 16:05:11;;;;;;;58.85;6.20;;;;;;;;;;5073376;28;20032;-47
2021/10/01 16:07:38;;;;;;;33.88;4.70;;;;;;;;;;5069920;28;20368;-46
2021/10/01 16:10:06;;;;;;;27.60;4.07;;;;;;;;;;5072648;28;20060;-45
2021/10/01 16:12:33;;;;;;;23.58;4.28;;;;;;;;;;5072211;28;20067;-45
2021/10/01 16:15:00;;;;;;;22.30;3.90;;;;;;;;;;5072537;28;20025;-47
2021/10/01 16:17:28;;;;;;;22.10;3.38;;;;;;;;;;5070991;28;20095;-42
2021/10/01 16:19:54;;;;;;;24.63;4.05;;;;;;;;;;5063502;28;20205;-46
2021/10/01 16:22:22;;;;;;;18.42;3.70;;;;;;;;;;5071989;28;20025;-45